Diablo, Washington
Current Conditions -  °F | °C
As of 2:55 PM on Tuesday 21 Oct 2014 (Local Time) from KAWO Reporting Station
Overcast Overcast  
Wind Chill: 61°   Ceiling: 6000
Heat Index: 61°   Visibility: 10mi
Dew Point: 48°   Wind: 18mph
Humidity: 63%   Direction: 150°SSE
Pressure: 29.89"   Gusts: 28mph
Location:  48.571°N, 121.561°W
Report Text: KAWO 212155Z AUTO 15016G24KT 10SM BKN060 OVC095 16/09 A2989 RMK AO1
Loading
Personal Weather Stations






























Interactive Weather Map
Tropical Storm Tracking
New forecast layout! Learn more

10-Day Weather Forecast

Advertisements
Track Severe Weather on mobile